Time;durP1;ratioP1;P1;durP2;ratioP2;P2;SDS_P1;SDS_P2;PMS_P1;PMS_P2;Temp;Humidity;BMP_temperature;BMP_pressure;BME280_temperature;BME280_humidity;BME280_pressure;Samples;Min_cycle;Max_cycle;Signal;HPM_P1;HPM_P2
2021/12/26 00:00:53;;;;;;;3.33;3.00;;;17.10;55.10;;;;;;10364883;28;20197;-66
2021/12/26 00:06:18;;;;;;;3.43;2.43;;;17.10;55.10;;;;;;10368849;28;20218;-65
2021/12/26 00:11:40;;;;;;;2.87;2.57;;;17.00;55.00;;;;;;10370286;28;20681;-66
2021/12/26 00:17:04;;;;;;;3.07;2.20;;;17.10;55.00;;;;;;10370064;28;20697;-66
2021/12/26 00:22:26;;;;;;;3.43;2.47;;;17.00;55.00;;;;;;10369724;28;20209;-66
2021/12/26 00:27:48;;;;;;;3.07;2.60;;;17.10;55.00;;;;;;10369860;28;20218;-66
2021/12/26 00:33:12;;;;;;;3.10;2.40;;;17.10;55.00;;;;;;10370069;28;20219;-66
2021/12/26 00:38:34;;;;;;;2.83;2.47;;;17.10;55.00;;;;;;10369733;28;20218;-65
2021/12/26 00:43:56;;;;;;;2.70;2.23;;;17.10;55.00;;;;;;10369553;28;20202;-66
2021/12/26 00:49:20;;;;;;;2.90;2.40;;;17.00;54.90;;;;;;10413580;22;20221;-70
2021/12/26 00:54:42;;;;;;;3.60;2.03;;;17.10;55.00;;;;;;10417397;28;20225;-70
2021/12/26 01:00:06;;;;;;;2.27;2.07;;;17.00;54.90;;;;;;10416636;28;20218;-70
2021/12/26 01:05:31;;;;;;;2.57;2.13;;;17.00;54.90;;;;;;10426877;28;20194;-69
2021/12/26 01:10:57;;;;;;;2.47;2.10;;;17.00;54.80;;;;;;10411081;28;20205;-69
2021/12/26 01:16:22;;;;;;;2.57;2.10;;;17.00;54.90;;;;;;10401745;28;20209;-69
2021/12/26 01:21:46;;;;;;;2.23;1.83;;;17.10;54.90;;;;;;10457235;28;20199;-70
2021/12/26 01:27:08;;;;;;;2.13;1.80;;;17.00;54.90;;;;;;10458634;28;20699;-70
2021/12/26 01:32:31;;;;;;;2.47;2.00;;;17.00;54.90;;;;;;10459154;28;20216;-70
2021/12/26 01:37:54;;;;;;;2.43;2.10;;;17.00;54.90;;;;;;10458483;28;20723;-70
2021/12/26 01:43:18;;;;;;;2.00;1.80;;;17.00;54.90;;;;;;10459248;28;20197;-69
2021/12/26 01:48:40;;;;;;;2.57;1.83;;;17.00;54.80;;;;;;10457210;28;20621;-70
2021/12/26 01:54:06;;;;;;;2.17;1.80;;;17.00;54.80;;;;;;10456835;28;20220;-70
2021/12/26 01:59:30;;;;;;;1.70;1.60;;;17.00;54.80;;;;;;10416129;28;20295;-70
2021/12/26 02:04:52;;;;;;;1.80;1.57;;;17.00;54.80;;;;;;10441749;28;20600;-69
2021/12/26 02:10:16;;;;;;;1.90;1.60;;;17.00;54.80;;;;;;10457558;28;20224;-70
2021/12/26 02:15:38;;;;;;;2.00;1.60;;;17.00;54.80;;;;;;10420572;28;20229;-70
2021/12/26 02:21:13;;;;;;;2.70;1.77;;;17.00;54.80;;;;;;10416463;28;20201;-70
2021/12/26 02:32:15;;;;;;;2.10;1.57;;;17.00;54.80;;;;;;10449219;28;20723;-70
2021/12/26 02:37:39;;;;;;;1.90;1.70;;;17.00;54.70;;;;;;10407597;28;20225;-70
2021/12/26 02:43:01;;;;;;;1.60;1.30;;;17.00;54.80;;;;;;10441947;28;20204;-70
2021/12/26 02:48:23;;;;;;;1.90;1.37;;;17.00;54.70;;;;;;10456025;28;20374;-69
2021/12/26 02:53:48;;;;;;;1.47;1.37;;;17.00;54.70;;;;;;10455721;28;20221;-70
2021/12/26 02:59:10;;;;;;;1.50;1.30;;;17.00;54.70;;;;;;10430284;28;20574;-69
2021/12/26 03:04:35;;;;;;;2.00;1.50;;;17.00;54.70;;;;;;10412000;28;20959;-70
2021/12/26 03:10:00;;;;;;;1.53;1.30;;;17.00;54.70;;;;;;10410930;28;20277;-70
2021/12/26 03:15:22;;;;;;;1.23;1.07;;;17.00;54.70;;;;;;10417867;28;20365;-70
2021/12/26 03:20:47;;;;;;;1.50;1.30;;;17.00;54.70;;;;;;10406868;28;20204;-69
2021/12/26 03:26:10;;;;;;;1.53;1.23;;;17.00;54.70;;;;;;10372561;28;20218;-69
2021/12/26 03:31:32;;;;;;;1.90;1.40;;;17.00;54.70;;;;;;10376782;28;22139;-70
2021/12/26 03:36:56;;;;;;;1.83;1.30;;;17.00;54.70;;;;;;10452303;28;20221;-69
2021/12/26 03:42:21;;;;;;;1.90;1.13;;;17.00;54.70;;;;;;10453606;28;20200;-70
2021/12/26 03:47:48;;;;;;;1.80;1.27;;;17.00;54.70;;;;;;10451091;28;20231;-70
2021/12/26 03:53:11;;;;;;;2.03;1.30;;;17.00;54.70;;;;;;10453188;28;20213;-69
2021/12/26 03:58:35;;;;;;;1.10;1.00;;;17.00;54.70;;;;;;10422675;28;20232;-70
2021/12/26 04:03:57;;;;;;;1.57;1.27;;;17.00;54.70;;;;;;10417329;28;20668;-70
2021/12/26 04:09:19;;;;;;;1.33;1.10;;;17.00;54.70;;;;;;10452827;28;20766;-70
2021/12/26 04:14:43;;;;;;;1.30;1.20;;;17.00;54.60;;;;;;10422844;28;20221;-70
2021/12/26 04:20:06;;;;;;;1.50;0.90;;;17.00;54.60;;;;;;10410385;28;20297;-70
2021/12/26 04:25:29;;;;;;;1.50;1.10;;;16.90;54.60;;;;;;10424655;28;20189;-70
2021/12/26 04:30:53;;;;;;;2.20;1.30;;;17.00;54.70;;;;;;10446729;28;20580;-70
2021/12/26 04:36:15;;;;;;;1.30;1.03;;;17.00;54.70;;;;;;10443443;28;20305;-70
2021/12/26 04:41:37;;;;;;;1.23;1.10;;;17.00;54.70;;;;;;10423639;28;20202;-70
2021/12/26 04:47:01;;;;;;;0.90;0.90;;;17.00;54.60;;;;;;10409602;28;20244;-69
2021/12/26 04:52:23;;;;;;;1.90;1.00;;;16.90;54.60;;;;;;10410727;28;20222;-70
2021/12/26 04:57:46;;;;;;;1.43;0.97;;;17.00;54.60;;;;;;10427176;28;20221;-70
2021/12/26 05:03:09;;;;;;;0.93;0.87;;;16.90;54.60;;;;;;10409260;28;20700;-70
2021/12/26 05:08:31;;;;;;;1.10;0.97;;;17.00;54.70;;;;;;10409049;28;20221;-70
2021/12/26 05:13:53;;;;;;;1.60;1.00;;;16.90;54.60;;;;;;10390903;28;20600;-70
2021/12/26 05:19:17;;;;;;;1.13;0.90;;;16.90;54.70;;;;;;10426864;28;20221;-69
2021/12/26 05:24:39;;;;;;;1.77;1.07;;;16.90;54.70;;;;;;10451288;28;20189;-70
2021/12/26 05:30:02;;;;;;;1.17;1.00;;;16.90;54.50;;;;;;10451100;28;20684;-70
2021/12/26 05:35:26;;;;;;;1.10;0.87;;;16.90;54.60;;;;;;10453815;28;20213;-70
2021/12/26 05:40:48;;;;;;;1.53;1.10;;;16.90;54.50;;;;;;10439552;28;20280;-70
2021/12/26 05:46:10;;;;;;;1.23;0.80;;;16.90;54.40;;;;;;10415465;28;20594;-70
2021/12/26 05:51:35;;;;;;;1.03;0.83;;;17.00;54.50;;;;;;10454488;28;20185;-70
2021/12/26 05:56:57;;;;;;;1.40;1.00;;;16.90;54.50;;;;;;10457597;28;20212;-70
2021/12/26 06:02:19;;;;;;;1.47;1.10;;;17.00;54.50;;;;;;10458696;28;20189;-70
2021/12/26 06:07:43;;;;;;;1.23;1.10;;;16.90;54.40;;;;;;10457502;28;20592;-70
2021/12/26 06:13:05;;;;;;;1.07;0.83;;;16.90;54.50;;;;;;10441191;28;20205;-69
2021/12/26 06:18:27;;;;;;;1.70;1.10;;;16.90;54.40;;;;;;10447868;28;20221;-70
2021/12/26 06:23:51;;;;;;;1.70;1.27;;;16.90;54.50;;;;;;10457278;28;20718;-70
2021/12/26 06:29:13;;;;;;;1.67;1.00;;;16.90;54.40;;;;;;10455275;28;20263;-70
2021/12/26 06:34:35;;;;;;;1.10;1.00;;;16.90;54.40;;;;;;10455348;28;20220;-70
2021/12/26 06:40:00;;;;;;;1.27;1.17;;;16.90;54.40;;;;;;10434080;28;20226;-69
2021/12/26 06:45:22;;;;;;;0.90;0.80;;;17.00;54.50;;;;;;10456228;28;20272;-70
2021/12/26 06:50:45;;;;;;;1.33;1.10;;;16.90;54.40;;;;;;10421108;22;20230;-64
2021/12/26 06:56:08;;;;;;;1.67;1.20;;;16.90;54.40;;;;;;10408449;28;20217;-65
2021/12/26 07:01:30;;;;;;;1.20;1.10;;;16.90;54.30;;;;;;10412615;28;20226;-65
2021/12/26 07:06:53;;;;;;;1.10;1.00;;;16.90;54.30;;;;;;10412427;28;20216;-64
2021/12/26 07:12:16;;;;;;;1.30;1.20;;;16.90;54.40;;;;;;10417842;28;20214;-65
2021/12/26 07:17:38;;;;;;;1.37;1.00;;;16.90;54.30;;;;;;10413687;28;20719;-64
2021/12/26 07:23:01;;;;;;;1.13;1.03;;;16.90;54.40;;;;;;10412474;28;20221;-64
2021/12/26 07:28:25;;;;;;;0.73;0.73;;;16.90;54.40;;;;;;10410776;28;20214;-64
2021/12/26 07:33:47;;;;;;;1.20;1.00;;;16.90;54.40;;;;;;10411615;28;20213;-64
2021/12/26 07:39:09;;;;;;;1.00;0.90;;;16.90;54.40;;;;;;10410345;28;20225;-64
2021/12/26 07:44:32;;;;;;;1.30;1.00;;;16.90;54.90;;;;;;10435617;28;20199;-63
2021/12/26 07:49:54;;;;;;;1.33;1.03;;;16.90;54.30;;;;;;10451040;28;20224;-63
2021/12/26 07:55:17;;;;;;;1.17;0.90;;;16.90;54.20;;;;;;10450072;28;20228;-64
2021/12/26 08:00:40;;;;;;;1.10;0.80;;;16.90;54.40;;;;;;10408643;28;20220;-64
2021/12/26 08:06:02;;;;;;;1.40;0.90;;;16.90;54.40;;;;;;10409281;28;20201;-64
2021/12/26 08:11:25;;;;;;;1.37;0.90;;;16.90;54.30;;;;;;10446810;28;20217;-65
2021/12/26 08:16:49;;;;;;;2.27;1.23;;;16.90;54.20;;;;;;10409344;28;20230;-65
2021/12/26 08:22:11;;;;;;;1.27;1.17;;;16.90;54.30;;;;;;10409490;28;20753;-64
2021/12/26 08:27:33;;;;;;;1.37;1.27;;;16.90;54.20;;;;;;10409449;28;20214;-64
2021/12/26 08:33:04;;;;;;;1.67;1.30;;;16.90;54.20;;;;;;10408680;28;20228;-65
2021/12/26 08:38:26;;;;;;;1.70;1.43;;;16.90;54.20;;;;;;10436090;28;20698;-64
2021/12/26 08:43:48;;;;;;;2.20;1.40;;;16.90;54.10;;;;;;10410069;28;20197;-64
2021/12/26 08:49:12;;;;;;;1.33;1.00;;;16.90;54.10;;;;;;10427945;28;20225;-64
2021/12/26 08:54:34;;;;;;;2.57;1.40;;;16.90;54.20;;;;;;10425759;28;20220;-65
2021/12/26 08:59:56;;;;;;;2.07;1.30;;;16.90;54.10;;;;;;10417254;28;20222;-64
2021/12/26 09:05:20;;;;;;;1.43;1.30;;;16.90;54.70;;;;;;10435668;28;20200;-65
2021/12/26 09:10:44;;;;;;;1.33;1.10;;;16.80;54.20;;;;;;10454573;28;20243;-64
2021/12/26 09:16:06;;;;;;;1.77;1.40;;;16.90;54.20;;;;;;10417717;28;20223;-65
2021/12/26 09:21:30;;;;;;;1.87;1.30;;;16.90;54.20;;;;;;10415701;28;20221;-64
2021/12/26 09:26:53;;;;;;;2.03;1.20;;;16.90;54.20;;;;;;10415240;28;20197;-65
2021/12/26 09:32:15;;;;;;;4.03;1.40;;;16.90;54.20;;;;;;10417729;28;20202;-62
2021/12/26 09:37:39;;;;;;;1.97;1.40;;;16.90;54.20;;;;;;10408954;28;20218;-65
2021/12/26 09:43:01;;;;;;;2.03;1.47;;;16.90;54.20;;;;;;10443512;28;20194;-66
2021/12/26 09:48:23;;;;;;;2.00;1.67;;;16.90;54.10;;;;;;10459236;28;20690;-67
2021/12/26 09:53:46;;;;;;;2.83;1.70;;;16.90;54.10;;;;;;10421770;28;20602;-67
2021/12/26 09:59:15;;;;;;;1.77;1.50;;;16.90;54.30;;;;;;10430415;28;20221;-68
2021/12/26 10:04:39;;;;;;;2.60;1.43;;;16.90;54.20;;;;;;10421894;28;20205;-67
2021/12/26 10:10:06;;;;;;;1.80;1.50;;;16.90;54.40;;;;;;10428145;28;20232;-66
2021/12/26 10:15:50;;;;;;;1.80;1.33;;;16.90;54.30;;;;;;10430419;28;20229;-67
2021/12/26 10:21:35;;;;;;;2.53;1.50;;;16.90;54.20;;;;;;10419395;28;20209;-67
2021/12/26 10:27:00;;;;;;;3.03;1.80;;;16.90;54.20;;;;;;10432290;28;20221;-66
2021/12/26 10:32:24;;;;;;;4.40;2.30;;;16.90;54.40;;;;;;10423158;28;20655;-67
2021/12/26 10:37:49;;;;;;;4.57;2.40;;;16.90;54.40;;;;;;10436694;28;20217;-67
2021/12/26 10:43:12;;;;;;;4.50;2.70;;;16.90;54.50;;;;;;10418117;28;20199;-67
2021/12/26 10:48:34;;;;;;;5.30;3.00;;;16.90;54.60;;;;;;10442268;28;20221;-66
2021/12/26 10:54:12;;;;;;;3.97;2.87;;;16.90;54.70;;;;;;10429290;28;20220;-67
2021/12/26 11:05:22;;;;;;;9.80;6.17;;;16.90;54.70;;;;;;10454694;28;20204;-66
2021/12/26 11:10:49;;;;;;;13.43;7.47;;;16.90;54.70;;;;;;10441916;28;20277;-66
2021/12/26 11:16:15;;;;;;;16.37;9.17;;;16.90;54.70;;;;;;10438359;28;20217;-66
2021/12/26 11:21:37;;;;;;;19.07;10.67;;;16.90;54.40;;;;;;10457707;28;20216;-68
2021/12/26 11:26:59;;;;;;;21.05;11.35;;;16.90;54.20;;;;;;10454117;28;20428;-63
2021/12/26 11:32:26;;;;;;;17.33;10.67;;;17.30;53.90;;;;;;10417879;28;20190;-65
2021/12/26 11:37:50;;;;;;;16.10;9.53;;;17.00;53.70;;;;;;10414367;28;20250;-64
2021/12/26 11:43:42;;;;;;;17.65;11.63;;;16.90;53.90;;;;;;10409060;28;20860;-66
2021/12/26 11:49:38;;;;;;;15.73;10.17;;;17.80;51.30;;;;;;10423747;28;20225;-67
2021/12/26 11:55:10;;;;;;;15.47;9.30;;;17.10;52.60;;;;;;10426376;28;20225;-66
2021/12/26 12:00:36;;;;;;;14.07;8.70;;;16.90;53.40;;;;;;10447103;28;20217;-63
2021/12/26 12:06:00;;;;;;;17.10;9.37;;;16.90;53.70;;;;;;10445903;28;20189;-66
2021/12/26 12:11:22;;;;;;;15.87;9.53;;;16.80;53.80;;;;;;10408568;28;20228;-66
2021/12/26 12:16:44;;;;;;;14.57;8.83;;;16.80;54.00;;;;;;10410050;28;20225;-66
2021/12/26 12:22:08;;;;;;;12.57;8.60;;;16.80;54.00;;;;;;10407428;28;20583;-66
2021/12/26 12:27:30;;;;;;;13.10;8.37;;;16.80;54.10;;;;;;10430360;28;20220;-67
2021/12/26 12:33:12;;;;;;;12.33;7.23;;;16.80;54.20;;;;;;10449897;28;20200;-66
2021/12/26 12:38:39;;;;;;;13.73;6.93;;;16.80;54.10;;;;;;10450589;28;20212;-66
2021/12/26 12:44:06;;;;;;;10.93;7.03;;;16.80;54.20;;;;;;10449078;28;20247;-67
2021/12/26 12:49:46;;;;;;;11.90;7.27;;;16.80;54.20;;;;;;10413396;22;20231;-66
2021/12/26 12:55:13;;;;;;;11.53;6.70;;;16.80;54.10;;;;;;10328016;28;20222;-68
2021/12/26 13:00:43;;;;;;;11.70;6.87;;;16.80;54.30;;;;;;10393342;28;20228;-67
2021/12/26 13:06:08;;;;;;;11.90;6.53;;;16.80;54.30;;;;;;10417490;28;20187;-66
2021/12/26 13:11:33;;;;;;;12.80;7.13;;;16.80;54.30;;;;;;10405498;28;20225;-66
2021/12/26 13:16:55;;;;;;;9.27;6.17;;;16.80;54.40;;;;;;10408266;28;20225;-66
2021/12/26 13:22:17;;;;;;;9.27;6.23;;;16.80;54.40;;;;;;10417578;28;20207;-66
2021/12/26 13:27:42;;;;;;;9.07;6.13;;;16.80;54.40;;;;;;10408082;28;20710;-66
2021/12/26 13:33:04;;;;;;;9.83;6.00;;;16.80;54.40;;;;;;10408111;28;20210;-66
2021/12/26 13:38:27;;;;;;;10.30;5.93;;;16.80;54.30;;;;;;10407639;28;20220;-66
2021/12/26 13:43:51;;;;;;;8.90;6.10;;;16.80;54.40;;;;;;10440166;28;20189;-67
2021/12/26 13:49:14;;;;;;;8.73;5.80;;;16.80;54.40;;;;;;10448403;28;20221;-66
2021/12/26 13:54:47;;;;;;;7.60;4.90;;;16.80;54.50;;;;;;10450223;28;20239;-66
2021/12/26 14:00:12;;;;;;;8.07;4.70;;;16.80;54.50;;;;;;10437677;28;20232;-66
2021/12/26 14:05:37;;;;;;;7.70;5.30;;;16.80;55.10;;;;;;10413728;28;20202;-66
2021/12/26 14:11:01;;;;;;;7.57;4.70;;;16.80;54.50;;;;;;10441764;28;20213;-66
2021/12/26 14:16:27;;;;;;;5.57;4.47;;;16.80;54.50;;;;;;10414730;28;20220;-66
2021/12/26 14:21:51;;;;;;;6.97;4.80;;;16.80;54.50;;;;;;10415320;28;20193;-66
2021/12/26 14:27:16;;;;;;;7.10;4.50;;;16.80;54.60;;;;;;10414732;28;20356;-66
2021/12/26 14:32:40;;;;;;;5.97;4.37;;;16.80;54.40;;;;;;10412733;28;20186;-66
2021/12/26 14:38:10;;;;;;;6.80;4.30;;;16.80;54.40;;;;;;10416757;28;20217;-66
2021/12/26 14:43:33;;;;;;;6.03;4.40;;;16.80;54.60;;;;;;10413413;28;20201;-66
2021/12/26 14:49:09;;;;;;;7.00;4.43;;;16.80;54.60;;;;;;10413071;28;20233;-66
2021/12/26 14:54:42;;;;;;;5.77;4.03;;;16.80;54.40;;;;;;10413037;28;20649;-66
2021/12/26 15:00:08;;;;;;;6.13;3.97;;;16.80;54.50;;;;;;10411951;28;20299;-66
2021/12/26 15:05:34;;;;;;;5.83;3.67;;;16.80;54.50;;;;;;10419094;28;20201;-66
2021/12/26 15:10:57;;;;;;;5.60;3.60;;;16.70;54.50;;;;;;10412463;28;20260;-66
2021/12/26 15:16:27;;;;;;;6.23;3.73;;;16.80;54.50;;;;;;10411863;28;20575;-66
2021/12/26 15:22:01;;;;;;;4.87;3.30;;;16.80;54.40;;;;;;10412491;28;20198;-66
2021/12/26 15:27:28;;;;;;;4.13;3.10;;;16.80;54.40;;;;;;10412413;28;20206;-66
2021/12/26 15:32:50;;;;;;;4.80;3.20;;;16.80;54.50;;;;;;10413006;28;20237;-66
2021/12/26 15:38:14;;;;;;;5.20;3.63;;;16.80;54.50;;;;;;10383201;28;20719;-66
2021/12/26 15:43:36;;;;;;;4.83;3.43;;;16.80;54.60;;;;;;10370438;28;20195;-66
2021/12/26 15:48:58;;;;;;;4.70;3.23;;;16.80;54.40;;;;;;10370324;28;20222;-67
2021/12/26 15:54:22;;;;;;;4.50;3.37;;;16.80;54.60;;;;;;10370936;28;20218;-66
2021/12/26 15:59:44;;;;;;;4.90;3.30;;;16.80;54.50;;;;;;10369858;28;20222;-66
2021/12/26 16:05:06;;;;;;;3.87;3.03;;;16.80;54.60;;;;;;10392310;28;20201;-67
2021/12/26 16:10:30;;;;;;;4.97;3.30;;;16.80;54.60;;;;;;10410363;28;20240;-67
2021/12/26 16:15:52;;;;;;;3.93;2.90;;;16.80;54.40;;;;;;10410209;28;20241;-66
2021/12/26 16:21:14;;;;;;;3.67;2.90;;;16.80;54.50;;;;;;10424411;28;20213;-67
2021/12/26 16:26:38;;;;;;;3.90;2.80;;;16.70;54.50;;;;;;10451901;28;20197;-66
2021/12/26 16:32:03;;;;;;;3.87;2.83;;;16.80;54.40;;;;;;10444803;28;20194;-66
2021/12/26 16:37:26;;;;;;;3.67;2.63;;;16.80;54.60;;;;;;10440738;28;20220;-67
2021/12/26 16:42:50;;;;;;;16.57;3.77;;;16.80;55.20;;;;;;10437179;28;20200;-67
2021/12/26 16:48:13;;;;;;;8.07;2.50;;;16.50;43.50;;;;;;10447494;28;20315;-68
2021/12/26 16:53:36;;;;;;;4.67;2.80;;;16.10;44.50;;;;;;10410982;28;20716;-66
2021/12/26 16:58:59;;;;;;;5.97;2.93;;;16.20;48.60;;;;;;10410051;28;20296;-67
2021/12/26 17:04:23;;;;;;;5.90;2.43;;;16.40;50.00;;;;;;10408922;28;20241;-67
2021/12/26 17:09:46;;;;;;;5.40;2.57;;;16.50;50.60;;;;;;10446285;28;20209;-67
2021/12/26 17:15:10;;;;;;;3.83;2.40;;;16.60;51.30;;;;;;10413452;28;20222;-66
2021/12/26 17:20:33;;;;;;;3.50;2.10;;;16.70;51.60;;;;;;10416096;28;20253;-66
2021/12/26 17:25:55;;;;;;;4.43;2.20;;;16.70;51.70;;;;;;10409597;28;20202;-66
2021/12/26 17:31:19;;;;;;;6.43;2.13;;;16.80;51.90;;;;;;10409913;28;20226;-66
2021/12/26 17:36:41;;;;;;;3.77;2.40;;;16.90;51.90;;;;;;10416411;28;20214;-67
2021/12/26 17:42:03;;;;;;;2.83;1.90;;;16.90;51.90;;;;;;10422669;28;20202;-66
2021/12/26 17:47:27;;;;;;;4.03;2.43;;;16.90;52.40;;;;;;10413687;28;20775;-67
2021/12/26 17:52:49;;;;;;;5.03;2.10;;;17.80;49.90;;;;;;10418298;28;20197;-66
2021/12/26 17:58:11;;;;;;;4.10;2.33;;;17.30;51.50;;;;;;10410027;28;20433;-66
2021/12/26 18:03:36;;;;;;;2.63;1.90;;;18.00;49.50;;;;;;10415555;28;20193;-67
2021/12/26 18:08:58;;;;;;;3.30;1.73;;;17.40;51.40;;;;;;10429008;28;20718;-67
2021/12/26 18:14:20;;;;;;;3.57;1.80;;;17.10;52.10;;;;;;10412895;28;20201;-68
2021/12/26 18:19:44;;;;;;;4.00;2.27;;;17.00;52.50;;;;;;10414811;28;20222;-67
2021/12/26 18:25:07;;;;;;;3.73;1.60;;;17.00;52.80;;;;;;10413715;28;20205;-67
2021/12/26 18:30:30;;;;;;;2.40;1.70;;;16.90;52.90;;;;;;10413455;28;20714;-67
2021/12/26 18:35:54;;;;;;;3.00;2.10;;;16.90;53.00;;;;;;10430775;28;20578;-67
2021/12/26 18:41:16;;;;;;;3.97;2.03;;;16.90;53.00;;;;;;10422374;28;20218;-67
2021/12/26 18:46:39;;;;;;;2.37;1.87;;;16.90;53.10;;;;;;10429075;28;20205;-67
2021/12/26 18:52:04;;;;;;;3.33;1.60;;;16.90;53.20;;;;;;10438123;22;20235;-71
2021/12/26 18:57:26;;;;;;;4.17;1.77;;;16.90;53.30;;;;;;10413086;28;20218;-71
2021/12/26 19:02:49;;;;;;;2.30;1.57;;;16.90;53.40;;;;;;10431781;28;20198;-71
2021/12/26 19:08:15;;;;;;;2.80;1.77;;;17.00;53.50;;;;;;10420295;28;20755;-70
2021/12/26 19:13:37;;;;;;;3.17;1.87;;;16.90;53.50;;;;;;10414161;28;20201;-70
2021/12/26 19:19:00;;;;;;;2.53;1.67;;;17.00;53.60;;;;;;10405471;28;20230;-71
2021/12/26 19:24:23;;;;;;;3.30;1.70;;;17.00;53.70;;;;;;10408778;28;20193;-72
2021/12/26 19:29:45;;;;;;;2.67;1.70;;;17.00;53.70;;;;;;10436421;28;20216;-72
2021/12/26 19:35:08;;;;;;;2.20;1.70;;;16.90;53.40;;;;;;10421314;28;20217;-72
2021/12/26 19:40:33;;;;;;;3.67;1.77;;;16.90;53.40;;;;;;10418021;28;20638;-73
2021/12/26 19:45:55;;;;;;;2.37;1.50;;;16.90;53.30;;;;;;10413439;28;20198;-72
2021/12/26 19:51:17;;;;;;;2.90;1.80;;;16.80;53.30;;;;;;10401123;28;20217;-72
2021/12/26 19:56:42;;;;;;;2.03;1.50;;;16.80;53.30;;;;;;10404009;28;20220;-72
2021/12/26 20:02:05;;;;;;;2.30;1.70;;;16.80;53.40;;;;;;10404722;28;20355;-73
2021/12/26 20:07:27;;;;;;;2.10;1.67;;;16.80;53.40;;;;;;10406849;28;20200;-73
2021/12/26 20:12:51;;;;;;;1.97;1.60;;;16.80;53.20;;;;;;10405969;28;20309;-73
2021/12/26 20:18:13;;;;;;;1.50;1.40;;;16.80;53.30;;;;;;10409712;28;20218;-72
2021/12/26 20:23:35;;;;;;;2.47;1.90;;;16.80;53.30;;;;;;10404302;28;20201;-74
2021/12/26 20:28:59;;;;;;;2.43;1.60;;;16.80;53.30;;;;;;10403592;28;20217;-73
2021/12/26 20:34:21;;;;;;;3.00;1.80;;;16.90;53.40;;;;;;10407420;28;20190;-73
2021/12/26 20:39:44;;;;;;;1.70;1.60;;;16.80;53.40;;;;;;10409317;28;20316;-73
2021/12/26 20:45:09;;;;;;;1.77;1.50;;;16.80;53.40;;;;;;10409178;28;20680;-73
2021/12/26 20:50:31;;;;;;;2.70;1.57;;;16.80;53.40;;;;;;10411114;28;20217;-73
2021/12/26 20:55:53;;;;;;;2.30;1.70;;;16.80;53.40;;;;;;10409411;28;20220;-73
2021/12/26 21:01:17;;;;;;;2.10;1.73;;;16.80;53.50;;;;;;10408220;28;20217;-74
2021/12/26 21:06:39;;;;;;;1.73;1.50;;;16.80;53.50;;;;;;10415110;28;20216;-73
2021/12/26 21:12:01;;;;;;;1.97;1.60;;;16.80;53.50;;;;;;10384098;28;20225;-73
2021/12/26 21:17:25;;;;;;;2.67;1.90;;;16.80;53.50;;;;;;10416824;28;20591;-73
2021/12/26 21:22:49;;;;;;;1.93;1.30;;;16.80;53.40;;;;;;10417758;28;20190;-73
2021/12/26 21:28:11;;;;;;;2.80;1.73;;;16.80;53.60;;;;;;10417447;28;20279;-73
2021/12/26 21:33:35;;;;;;;2.30;1.43;;;16.80;53.50;;;;;;10433100;28;20197;-73
2021/12/26 21:38:57;;;;;;;1.93;1.50;;;16.80;53.50;;;;;;10417029;28;20229;-73
2021/12/26 21:44:19;;;;;;;1.70;1.30;;;16.80;53.60;;;;;;10417018;28;20192;-73
2021/12/26 21:49:48;;;;;;;1.73;1.47;;;16.80;53.70;;;;;;10416685;28;20225;-74
2021/12/26 21:55:12;;;;;;;2.30;1.80;;;16.80;53.60;;;;;;10415968;28;20704;-73
2021/12/26 22:00:35;;;;;;;2.33;1.60;;;16.70;53.50;;;;;;10416618;28;20303;-73
2021/12/26 22:05:59;;;;;;;3.10;1.67;;;16.80;53.70;;;;;;10416357;28;20201;-74
2021/12/26 22:11:21;;;;;;;1.73;1.43;;;16.80;53.70;;;;;;10419429;28;20715;-73
2021/12/26 22:16:43;;;;;;;2.90;1.77;;;16.70;53.70;;;;;;10415888;28;20225;-73
2021/12/26 22:22:06;;;;;;;1.43;1.30;;;16.80;53.70;;;;;;10415286;28;20228;-73
2021/12/26 22:27:30;;;;;;;2.33;1.60;;;16.80;53.70;;;;;;10415522;28;20209;-73
2021/12/26 22:32:52;;;;;;;1.73;1.43;;;16.70;53.60;;;;;;10414154;28;20692;-73
2021/12/26 22:38:16;;;;;;;2.13;1.73;;;16.70;53.60;;;;;;10414296;28;20218;-73
2021/12/26 22:43:38;;;;;;;2.50;1.80;;;16.70;53.60;;;;;;10414049;28;20209;-73
2021/12/26 22:49:03;;;;;;;2.10;1.40;;;16.80;53.70;;;;;;10413137;28;20732;-73
2021/12/26 22:54:26;;;;;;;1.80;1.50;;;16.70;53.60;;;;;;10414510;28;20629;-73
2021/12/26 22:59:48;;;;;;;2.70;1.73;;;16.70;53.60;;;;;;10413635;28;20310;-73
2021/12/26 23:05:11;;;;;;;2.33;1.60;;;16.70;53.60;;;;;;10414790;28;20194;-73
2021/12/26 23:10:39;;;;;;;2.00;1.73;;;16.70;53.60;;;;;;10414258;28;20225;-73
2021/12/26 23:16:02;;;;;;;2.13;1.70;;;16.70;53.60;;;;;;10413686;28;20293;-73
2021/12/26 23:21:24;;;;;;;1.53;1.43;;;16.70;53.80;;;;;;10411909;28;20218;-73
2021/12/26 23:26:47;;;;;;;2.30;1.47;;;16.70;53.70;;;;;;10411438;28;20216;-73
2021/12/26 23:32:10;;;;;;;1.63;1.47;;;16.70;53.70;;;;;;10411853;28;20612;-73
2021/12/26 23:37:32;;;;;;;2.30;1.80;;;16.70;53.70;;;;;;10412209;28;20218;-73
2021/12/26 23:42:55;;;;;;;1.80;1.40;;;16.70;53.60;;;;;;10411398;28;20209;-73
2021/12/26 23:48:17;;;;;;;2.10;1.30;;;16.70;53.60;;;;;;10410727;28;20597;-73
2021/12/26 23:53:40;;;;;;;2.80;1.90;;;16.70;53.80;;;;;;10412695;28;20197;-73
2021/12/26 23:59:04;;;;;;;3.03;1.80;;;16.70;53.70;;;;;;10411055;28;20232;-73
